createdAt,value
2022-10-17T00:01:59.161Z,59.29
2022-10-17T00:04:32.272Z,59.21
2022-10-17T00:07:02.094Z,59.16
2022-10-17T00:09:33.211Z,59.03
2022-10-17T00:12:32.420Z,59.16
2022-10-17T00:15:17.370Z,59.21
2022-10-17T00:17:48.230Z,58.95
2022-10-17T00:20:25.982Z,58.81
2022-10-17T00:22:57.388Z,59.19
2022-10-17T00:25:25.873Z,59.26
2022-10-17T00:27:53.937Z,59.02
2022-10-17T00:30:25.036Z,58.73
2022-10-17T00:33:08.219Z,58.55
2022-10-17T00:35:38.530Z,59.10
2022-10-17T00:38:12.440Z,59.24
2022-10-17T00:40:40.510Z,59.09
2022-10-17T00:43:20.558Z,59.03
2022-10-17T00:45:49.252Z,59.13
2022-10-17T00:48:23.318Z,59.15
2022-10-17T00:50:52.154Z,59.21
2022-10-17T00:53:22.885Z,58.94
2022-10-17T00:55:54.326Z,58.56
2022-10-17T00:58:33.459Z,58.53
2022-10-17T01:01:03.168Z,58.66
2022-10-17T01:03:30.999Z,59.39
2022-10-17T01:05:58.642Z,59.58
2022-10-17T01:08:25.928Z,58.80
2022-10-17T01:11:05.965Z,58.99
2022-10-17T01:13:49.925Z,58.87
2022-10-17T01:16:24.678Z,59.15
2022-10-17T01:19:31.056Z,59.48
2022-10-17T01:22:11.650Z,58.87
2022-10-17T01:24:48.795Z,59.41
2022-10-17T01:27:35.953Z,59.42
2022-10-17T01:30:30.692Z,59.77
2022-10-17T01:33:24.265Z,59.07
2022-10-17T01:36:06.752Z,59.31
2022-10-17T01:39:06.151Z,59.01
2022-10-17T01:41:43.126Z,59.21
2022-10-17T01:44:21.911Z,59.36
2022-10-17T01:47:02.579Z,59.41
2022-10-17T01:49:33.358Z,59.33
2022-10-17T01:52:11.647Z,59.26
2022-10-17T01:54:55.537Z,59.30
2022-10-17T01:57:26.578Z,59.87
2022-10-17T02:00:08.437Z,59.21
2022-10-17T02:02:59.400Z,59.52
2022-10-17T02:05:44.577Z,59.74
2022-10-17T02:08:53.135Z,59.54
2022-10-17T02:11:28.067Z,59.58
2022-10-17T02:14:22.223Z,59.73
2022-10-17T02:17:08.457Z,60.11
2022-10-17T02:20:17.582Z,59.48
2022-10-17T02:23:25.394Z,59.06
2022-10-17T02:26:16.702Z,59.21
2022-10-17T02:28:59.823Z,59.03
2022-10-17T02:31:44.942Z,59.62
2022-10-17T02:34:54.401Z,60.14
2022-10-17T02:37:28.524Z,59.80
2022-10-17T02:40:10.055Z,59.54
2022-10-17T02:42:48.716Z,59.70
2022-10-17T02:45:36.809Z,59.66
2022-10-17T02:49:03.549Z,59.27
2022-10-17T02:52:06.129Z,59.17
2022-10-17T02:54:55.457Z,59.87
2022-10-17T02:58:15.113Z,59.92
2022-10-17T03:00:46.211Z,59.88
2022-10-17T03:03:26.175Z,59.82
2022-10-17T03:05:54.214Z,60.03
2022-10-17T03:08:25.164Z,60.56
2022-10-17T03:10:52.545Z,59.93
2022-10-17T03:13:21.385Z,59.74
2022-10-17T03:15:48.687Z,59.63
2022-10-17T03:18:16.215Z,59.11
2022-10-17T03:20:44.597Z,59.47
2022-10-17T03:23:11.880Z,58.97
2022-10-17T03:25:40.251Z,58.65
2022-10-17T03:28:07.497Z,58.55
2022-10-17T03:30:35.158Z,58.47
2022-10-17T03:33:02.620Z,58.41
2022-10-17T03:35:30.594Z,58.45
2022-10-17T03:37:59.023Z,58.47
2022-10-17T03:40:28.040Z,58.68
2022-10-17T03:42:55.175Z,58.46
2022-10-17T03:45:22.448Z,58.08
2022-10-17T03:47:49.892Z,58.14
2022-10-17T03:50:17.233Z,57.92
2022-10-17T03:52:48.604Z,57.84
2022-10-17T03:55:16.670Z,57.80
2022-10-17T03:57:45.518Z,58.02
2022-10-17T04:00:23.642Z,57.96
2022-10-17T04:03:17.119Z,58.40
2022-10-17T04:05:54.698Z,58.84
2022-10-17T04:08:29.367Z,58.60
2022-10-17T04:11:34.877Z,58.33
2022-10-17T04:14:14.246Z,58.27
2022-10-17T04:17:04.270Z,58.87
2022-10-17T04:19:49.567Z,58.62
2022-10-17T04:22:23.023Z,58.95
2022-10-17T04:24:53.978Z,58.32
2022-10-17T04:27:39.745Z,58.71
2022-10-17T04:30:52.139Z,58.84
2022-10-17T04:33:42.918Z,58.98
2022-10-17T04:36:19.135Z,59.03
2022-10-17T04:41:46.553Z,59.31
2022-10-17T04:44:22.105Z,59.30
2022-10-17T04:47:09.274Z,59.71
2022-10-17T04:49:42.694Z,59.91
2022-10-17T04:52:26.866Z,60.12
2022-10-17T04:55:11.833Z,59.94
2022-10-17T04:57:56.687Z,60.17
2022-10-17T05:00:32.827Z,59.77
2022-10-17T05:03:38.139Z,59.81
2022-10-17T05:06:16.320Z,59.18
2022-10-17T05:09:00.605Z,59.20
2022-10-17T05:11:34.307Z,59.10
2022-10-17T05:14:09.101Z,58.98
2022-10-17T05:16:51.955Z,59.20
2022-10-17T05:19:31.202Z,59.27
2022-10-17T05:22:06.481Z,59.06
2022-10-17T05:24:46.613Z,59.08
2022-10-17T05:27:28.377Z,59.02
2022-10-17T05:30:07.313Z,58.90
2022-10-17T05:32:45.467Z,58.82
2022-10-17T05:35:22.324Z,59.23
2022-10-17T05:38:02.360Z,59.29
2022-10-17T05:40:42.901Z,58.98
2022-10-17T05:43:16.611Z,59.56
2022-10-17T05:45:59.631Z,59.00
2022-10-17T05:48:30.878Z,59.72
2022-10-17T05:51:17.377Z,59.61
2022-10-17T05:53:45.505Z,59.64
2022-10-17T05:56:20.941Z,59.56
2022-10-17T05:58:52.371Z,59.60
2022-10-17T06:01:46.267Z,59.49
2022-10-17T06:04:14.024Z,59.11
2022-10-17T06:06:41.917Z,59.25
2022-10-17T06:09:14.071Z,58.87
2022-10-17T06:11:48.293Z,59.12
2022-10-17T06:14:17.275Z,59.10
2022-10-17T06:16:45.336Z,58.97
2022-10-17T06:19:13.473Z,58.48
2022-10-17T06:21:44.103Z,58.43
2022-10-17T06:24:19.672Z,58.06
2022-10-17T06:26:48.330Z,57.84
2022-10-17T06:29:16.695Z,57.63
2022-10-17T06:31:51.137Z,57.99
2022-10-17T06:34:20.484Z,57.54
2022-10-17T06:36:48.993Z,57.96
2022-10-17T06:39:22.051Z,58.01
2022-10-17T06:42:02.609Z,57.21
2022-10-17T06:44:55.055Z,57.45
2022-10-17T06:47:45.193Z,57.49
2022-10-17T06:50:36.526Z,56.92
2022-10-17T06:53:18.102Z,57.00
2022-10-17T06:56:08.245Z,56.88
2022-10-17T06:58:56.276Z,56.79
2022-10-17T07:01:34.913Z,56.73
2022-10-17T07:04:08.266Z,56.52
2022-10-17T07:06:36.309Z,56.85
2022-10-17T07:09:13.801Z,56.54
2022-10-17T07:11:41.617Z,56.76
2022-10-17T07:14:11.192Z,56.66
2022-10-17T07:16:39.353Z,56.32
2022-10-17T07:19:19.635Z,56.10
2022-10-17T07:21:50.600Z,56.07
2022-10-17T07:24:20.992Z,56.17
2022-10-17T07:26:54.665Z,55.90
2022-10-17T07:29:22.493Z,55.20
2022-10-17T07:32:09.002Z,54.98
2022-10-17T07:34:39.590Z,55.32
2022-10-17T07:37:10.465Z,55.36
2022-10-17T07:39:40.564Z,55.55
2022-10-17T07:42:08.499Z,55.64
2022-10-17T07:44:38.463Z,55.74
2022-10-17T07:47:06.945Z,55.84
2022-10-17T07:49:43.306Z,56.10
2022-10-17T07:52:12.690Z,55.36
2022-10-17T07:54:40.780Z,55.66
2022-10-17T07:57:09.538Z,55.66
2022-10-17T07:59:38.763Z,56.05
2022-10-17T08:02:08.678Z,55.92
2022-10-17T08:04:37.027Z,56.33
2022-10-17T08:07:19.594Z,56.26
2022-10-17T08:09:50.009Z,56.23
2022-10-17T08:12:18.533Z,56.09
2022-10-17T08:14:47.471Z,56.29
2022-10-17T08:17:16.369Z,55.87
2022-10-17T08:19:45.951Z,55.35
2022-10-17T08:22:14.197Z,55.57
2022-10-17T08:24:43.549Z,55.66
2022-10-17T08:27:14.283Z,54.83
2022-10-17T08:29:43.923Z,55.11
2022-10-17T08:32:12.506Z,55.16
2022-10-17T08:34:40.696Z,55.13
2022-10-17T08:37:08.445Z,54.74
2022-10-17T08:39:36.242Z,54.81
2022-10-17T08:42:06.606Z,54.62
2022-10-17T08:44:52.535Z,54.74
2022-10-17T08:47:29.994Z,54.35
2022-10-17T08:50:04.102Z,54.83
2022-10-17T08:52:43.328Z,54.47
2022-10-17T08:55:23.169Z,54.17
2022-10-17T08:57:53.450Z,54.39
2022-10-17T09:00:22.644Z,54.60
2022-10-17T09:03:08.429Z,54.85
2022-10-17T09:05:54.637Z,55.77
2022-10-17T09:08:47.933Z,55.57
2022-10-17T09:11:52.713Z,55.46
2022-10-17T09:14:32.210Z,55.27
2022-10-17T09:17:21.941Z,54.71
2022-10-17T09:20:10.958Z,54.14
2022-10-17T09:22:49.704Z,54.06
2022-10-17T09:25:20.195Z,53.29
2022-10-17T09:27:52.159Z,52.46
2022-10-17T09:30:50.379Z,52.36
2022-10-17T09:33:54.008Z,52.38
2022-10-17T09:36:39.932Z,52.71
2022-10-17T09:39:18.565Z,52.46
2022-10-17T09:41:54.155Z,52.64
2022-10-17T09:44:31.541Z,52.46
2022-10-17T09:47:31.895Z,52.15
2022-10-17T09:50:05.674Z,52.17
2022-10-17T09:52:43.614Z,51.74
2022-10-17T09:55:38.685Z,50.94
2022-10-17T09:58:09.517Z,51.45
2022-10-17T10:00:45.564Z,51.38
2022-10-17T10:03:21.020Z,52.09
2022-10-17T10:06:01.347Z,53.27
2022-10-17T10:08:53.156Z,54.25
2022-10-17T10:11:27.604Z,54.55
2022-10-17T10:14:16.249Z,54.47
2022-10-17T10:16:51.116Z,55.54
2022-10-17T10:19:39.029Z,56.20
2022-10-17T10:22:24.309Z,56.01
2022-10-17T10:25:20.596Z,56.20
2022-10-17T10:27:49.454Z,55.26
2022-10-17T10:30:36.133Z,55.26
2022-10-17T10:33:09.516Z,55.55
2022-10-17T10:35:43.714Z,54.87
2022-10-17T10:38:18.397Z,55.05
2022-10-17T10:40:53.031Z,54.18
2022-10-17T10:43:41.645Z,53.42
2022-10-17T10:46:18.337Z,53.28
2022-10-17T10:49:00.835Z,52.77
2022-10-17T10:51:33.213Z,52.06
2022-10-17T10:54:16.241Z,51.02
2022-10-17T10:56:53.631Z,50.82
2022-10-17T10:59:38.699Z,50.99
2022-10-17T11:02:28.437Z,49.58
2022-10-17T11:05:14.254Z,49.37
2022-10-17T11:07:59.737Z,49.16
2022-10-17T11:10:51.213Z,48.81
2022-10-17T11:13:30.913Z,48.94
2022-10-17T11:16:19.361Z,48.91
2022-10-17T11:19:03.718Z,47.71
2022-10-17T11:21:38.201Z,46.71
2022-10-17T11:24:09.478Z,47.34
2022-10-17T11:27:15.559Z,46.79
2022-10-17T11:29:47.611Z,46.50
2022-10-17T11:32:33.410Z,46.42
2022-10-17T11:35:39.559Z,45.70
2022-10-17T11:38:33.032Z,46.13
2022-10-17T11:41:08.052Z,47.00
2022-10-17T11:43:56.554Z,46.20
2022-10-17T11:46:33.779Z,46.38
2022-10-17T11:49:20.663Z,45.54
2022-10-17T11:52:02.953Z,45.05
2022-10-17T11:54:49.634Z,44.88
2022-10-17T11:57:43.537Z,44.74
2022-10-17T12:00:17.829Z,44.07
2022-10-17T12:03:31.356Z,43.75
2022-10-17T12:06:16.425Z,43.08
2022-10-17T12:09:09.172Z,44.16
2022-10-17T12:12:09.268Z,43.88
2022-10-17T12:14:47.091Z,43.61
2022-10-17T12:17:35.703Z,43.33
2022-10-17T12:20:37.100Z,42.68
2022-10-17T12:23:18.183Z,42.41
2022-10-17T12:25:51.864Z,42.89
2022-10-17T12:28:44.887Z,44.28
2022-10-17T12:31:23.911Z,44.02
2022-10-17T12:33:57.622Z,44.58
2022-10-17T12:36:32.448Z,45.55
2022-10-17T12:39:09.547Z,44.89
2022-10-17T12:41:41.347Z,45.16
2022-10-17T12:44:15.185Z,45.43
2022-10-17T12:47:11.220Z,46.21
2022-10-17T12:49:46.046Z,46.53
2022-10-17T12:52:27.462Z,46.27
2022-10-17T12:55:13.486Z,46.77
2022-10-17T12:57:50.481Z,46.92
2022-10-17T13:01:19.104Z,47.47
2022-10-17T13:03:49.205Z,48.22
2022-10-17T13:06:22.341Z,47.85
2022-10-17T13:09:02.429Z,48.20
2022-10-17T13:11:37.050Z,48.51
2022-10-17T13:14:13.381Z,49.39
2022-10-17T13:16:58.595Z,50.39
2022-10-17T13:19:32.674Z,49.65
2022-10-17T13:22:06.903Z,50.15
2022-10-17T13:24:44.073Z,50.91
2022-10-17T13:27:31.782Z,51.62
2022-10-17T13:30:21.036Z,50.51
2022-10-17T13:32:52.273Z,50.55
2022-10-17T13:35:55.370Z,50.31
2022-10-17T13:38:26.196Z,50.71
2022-10-17T13:41:01.680Z,50.25
2022-10-17T13:43:39.561Z,50.43
2022-10-17T13:46:32.600Z,50.61
2022-10-17T13:49:03.642Z,50.36
2022-10-17T13:51:34.594Z,50.86
2022-10-17T13:54:02.563Z,50.20
2022-10-17T13:56:32.615Z,50.00
2022-10-17T13:59:22.246Z,50.91
2022-10-17T14:01:53.244Z,50.96
2022-10-17T14:04:22.313Z,50.34
2022-10-17T14:06:52.224Z,50.45
2022-10-17T14:09:27.840Z,49.63
2022-10-17T14:12:11.991Z,49.12
2022-10-17T14:17:39.277Z,48.48
2022-10-17T14:25:51.296Z,48.04
2022-10-17T14:28:23.943Z,48.23
2022-10-17T14:30:57.574Z,47.70
2022-10-17T14:33:34.625Z,47.82
2022-10-17T14:36:07.637Z,48.08
2022-10-17T14:38:39.689Z,48.52
2022-10-17T14:44:16.768Z,48.70
2022-10-17T14:46:50.784Z,48.78
2022-10-17T14:49:33.280Z,49.16
2022-10-17T14:52:27.924Z,49.11
2022-10-17T14:54:57.127Z,49.17
2022-10-17T14:57:29.468Z,49.88
2022-10-17T14:59:59.054Z,49.88
2022-10-17T15:02:29.005Z,50.10
2022-10-17T15:04:56.858Z,50.62
2022-10-17T15:07:24.670Z,50.61
2022-10-17T15:09:54.139Z,49.66
2022-10-17T15:12:28.588Z,49.51
2022-10-17T15:14:57.012Z,50.41
2022-10-17T15:17:30.613Z,50.85
2022-10-17T15:19:59.958Z,50.32
2022-10-17T15:22:30.985Z,51.28
2022-10-17T15:24:59.224Z,51.55
2022-10-17T15:27:34.779Z,52.13
2022-10-17T15:30:05.714Z,51.99
2022-10-17T15:32:33.801Z,52.23
2022-10-17T15:35:01.472Z,52.41
2022-10-17T15:37:37.737Z,52.72
2022-10-17T15:40:07.192Z,52.27
2022-10-17T15:42:35.378Z,52.41
2022-10-17T15:45:04.524Z,52.79
2022-10-17T15:47:34.679Z,52.76
2022-10-17T15:50:07.042Z,53.62
2022-10-17T15:52:38.745Z,53.67
2022-10-17T15:55:09.616Z,53.96
2022-10-17T15:57:45.643Z,55.24
2022-10-17T16:00:20.702Z,55.00
2022-10-17T16:02:50.310Z,54.75
2022-10-17T16:05:26.320Z,55.06
2022-10-17T16:07:55.431Z,54.75
2022-10-17T16:10:24.718Z,55.16
2022-10-17T16:12:53.502Z,55.08
2022-10-17T16:15:25.450Z,55.54
2022-10-17T16:17:54.827Z,55.30
2022-10-17T16:20:27.299Z,55.40
2022-10-17T16:23:01.353Z,55.16
2022-10-17T16:25:30.571Z,55.24
2022-10-17T16:28:00.669Z,55.91
2022-10-17T16:30:34.174Z,55.97
2022-10-17T16:33:07.003Z,56.61
2022-10-17T16:35:37.622Z,55.83
2022-10-17T16:38:07.756Z,56.40
2022-10-17T16:40:41.869Z,56.90
2022-10-17T16:43:18.566Z,57.42
2022-10-17T16:45:47.129Z,56.72
2022-10-17T16:48:21.344Z,56.81
2022-10-17T16:50:51.912Z,57.16
2022-10-17T16:53:23.177Z,57.53
2022-10-17T16:56:06.340Z,58.21
2022-10-17T16:58:35.028Z,57.86
2022-10-17T17:01:08.769Z,58.68
2022-10-17T17:03:39.915Z,59.13
2022-10-17T17:06:10.197Z,58.68
2022-10-17T17:08:38.027Z,57.91
2022-10-17T17:11:11.130Z,58.17
2022-10-17T17:13:39.125Z,57.86
2022-10-17T17:16:14.533Z,59.27
2022-10-17T17:18:43.917Z,58.27
2022-10-17T17:24:10.625Z,58.58
2022-10-17T17:26:39.460Z,58.91
2022-10-17T17:29:07.809Z,58.77
2022-10-17T17:31:36.851Z,58.58
2022-10-17T17:34:08.055Z,58.83
2022-10-17T17:36:37.962Z,58.79
2022-10-17T17:39:11.400Z,58.96
2022-10-17T17:41:40.200Z,58.70
2022-10-17T17:44:15.747Z,59.64
2022-10-17T17:46:46.259Z,59.56
2022-10-17T17:49:15.654Z,59.88
2022-10-17T17:51:47.001Z,59.46
2022-10-17T17:54:15.359Z,60.07
2022-10-17T17:56:44.231Z,59.91
2022-10-17T17:59:14.069Z,60.43
2022-10-17T18:01:44.053Z,60.56
2022-10-17T18:04:17.166Z,60.10
2022-10-17T18:06:46.284Z,60.22
2022-10-17T18:09:17.478Z,60.11
2022-10-17T18:11:45.549Z,60.20
2022-10-17T18:14:19.827Z,60.46
2022-10-17T18:16:48.114Z,60.36
2022-10-17T18:19:16.349Z,60.67
2022-10-17T18:21:46.998Z,61.12
2022-10-17T18:24:23.475Z,61.06
2022-10-17T18:27:03.767Z,60.70
2022-10-17T18:29:42.501Z,61.12
2022-10-17T18:32:17.468Z,60.80
2022-10-17T18:35:05.670Z,61.24
2022-10-17T18:37:45.856Z,61.22
2022-10-17T18:40:17.430Z,61.57
2022-10-17T18:42:51.868Z,61.07
2022-10-17T18:48:13.042Z,62.02
2022-10-17T18:50:53.086Z,61.56
2022-10-17T18:53:54.601Z,62.80
2022-10-17T18:56:28.864Z,61.79
2022-10-17T18:58:59.065Z,61.91
2022-10-17T19:01:37.884Z,62.35
2022-10-17T19:04:14.630Z,62.34
2022-10-17T19:06:48.438Z,62.29
2022-10-17T19:09:17.220Z,62.90
2022-10-17T19:11:59.322Z,61.81
2022-10-17T19:14:41.478Z,62.21
2022-10-17T19:17:16.211Z,62.31
2022-10-17T19:19:59.207Z,62.76
2022-10-17T19:22:28.864Z,62.30
2022-10-17T19:28:22.943Z,62.42
2022-10-17T19:30:54.548Z,63.24
2022-10-17T19:33:22.435Z,62.34
2022-10-17T19:35:59.890Z,62.78
2022-10-17T19:38:35.585Z,62.45
2022-10-17T19:41:18.229Z,62.85
2022-10-17T19:43:47.045Z,63.15
2022-10-17T19:46:21.383Z,62.35
2022-10-17T19:48:50.242Z,62.01
2022-10-17T19:51:21.490Z,62.00
2022-10-17T19:53:50.796Z,62.03
2022-10-17T19:56:26.448Z,61.82
2022-10-17T19:59:00.159Z,61.95
2022-10-17T20:01:37.331Z,61.75
2022-10-17T20:04:12.093Z,62.40
2022-10-17T20:06:44.900Z,61.92
2022-10-17T20:09:18.295Z,62.32
2022-10-17T20:11:49.827Z,62.36
2022-10-17T20:14:22.514Z,62.04
2022-10-17T20:16:53.361Z,61.84
2022-10-17T20:19:28.293Z,61.95
2022-10-17T20:21:57.857Z,61.72
2022-10-17T20:24:29.488Z,61.97
2022-10-17T20:26:58.023Z,61.79
2022-10-17T20:29:32.199Z,61.82
2022-10-17T20:34:51.694Z,62.06
2022-10-17T20:37:23.398Z,62.01
2022-10-17T20:40:16.491Z,62.00
2022-10-17T20:42:52.144Z,61.73
2022-10-17T20:45:43.631Z,62.33
2022-10-17T20:48:21.530Z,61.67
2022-10-17T20:51:01.810Z,61.84
2022-10-17T20:53:49.042Z,61.98
2022-10-17T20:59:23.926Z,62.07
2022-10-17T21:02:11.407Z,62.14
2022-10-17T21:04:54.302Z,62.10
2022-10-17T21:07:27.947Z,61.90
2022-10-17T21:10:30.709Z,62.16
2022-10-17T21:13:09.020Z,61.92
2022-10-17T21:16:00.102Z,61.82
2022-10-17T21:18:35.613Z,62.23
2022-10-17T21:21:36.799Z,62.28
2022-10-17T21:24:25.291Z,61.88
2022-10-17T21:26:58.278Z,61.99
2022-10-17T21:33:04.897Z,62.74
2022-10-17T21:35:56.949Z,62.55
2022-10-17T21:38:41.771Z,62.21
2022-10-17T21:41:19.491Z,62.59
2022-10-17T21:44:05.256Z,62.48
2022-10-17T21:50:08.883Z,63.16
2022-10-17T21:55:42.394Z,62.21
2022-10-17T21:58:26.138Z,62.76
2022-10-17T22:07:51.081Z,62.73
2022-10-17T22:13:39.798Z,62.63
2022-10-17T22:16:21.248Z,62.42
2022-10-17T22:19:06.492Z,62.60
2022-10-17T22:25:14.055Z,62.25
2022-10-17T22:27:51.778Z,61.77
2022-10-17T22:33:13.708Z,61.74
2022-10-17T22:36:19.889Z,61.94
2022-10-17T22:39:04.697Z,61.65
2022-10-17T22:41:49.725Z,61.53
2022-10-17T22:44:43.441Z,61.39
2022-10-17T22:47:23.600Z,61.55
2022-10-17T22:49:52.525Z,61.82
2022-10-17T22:52:22.820Z,61.40
2022-10-17T22:54:58.058Z,61.55
2022-10-17T22:57:39.249Z,61.29
2022-10-17T23:00:13.160Z,61.07
2022-10-17T23:02:41.983Z,61.16
2022-10-17T23:05:15.162Z,61.01
2022-10-17T23:07:48.796Z,61.67
2022-10-17T23:10:20.436Z,61.31
2022-10-17T23:12:51.573Z,61.23
2022-10-17T23:15:19.552Z,61.21
2022-10-17T23:17:48.646Z,61.15
2022-10-17T23:20:18.707Z,61.54
2022-10-17T23:22:47.304Z,61.16
2022-10-17T23:25:15.567Z,61.37
2022-10-17T23:27:44.248Z,61.12
2022-10-17T23:30:14.823Z,60.97
2022-10-17T23:32:43.093Z,61.27
2022-10-17T23:35:13.837Z,61.33
2022-10-17T23:37:41.677Z,61.29
2022-10-17T23:40:12.978Z,61.03
2022-10-17T23:42:40.832Z,61.46
2022-10-17T23:45:09.121Z,61.36
2022-10-17T23:47:37.157Z,61.11
2022-10-17T23:50:11.918Z,61.39
2022-10-17T23:52:40.216Z,61.41
2022-10-17T23:55:11.974Z,61.44
2022-10-17T23:57:41.523Z,61.96
